Time,TemperatureF,DewpointF,PressureIn,WindDirection,WindDirectionDegrees,WindSpeedMPH,WindSpeedGustMPH,Humidity,HourlyPrecipIn,Conditions,Clouds,dailyrainin,SolarRadiationWatts/m^2,SoftwareType,DateUTC
2013-07-21 00:01:00,42.0,41.0,-100.00,North,360,0.0,0.0,98,0.00,,,0.00,0.000000,,2013-07-21 05:01:00,
2013-07-21 00:22:00,42.0,41.0,-100.00,North,360,0.0,0.0,98,0.00,,,0.00,0.000000,,2013-07-21 05:22:00,
2013-07-21 00:32:00,42.0,41.0,-100.00,North,360,0.0,0.0,98,0.00,,,0.00,0.000000,,2013-07-21 05:32:00,
2013-07-21 00:42:00,42.0,41.0,-100.00,North,360,0.0,0.0,98,0.00,,,0.00,0.000000,,2013-07-21 05:42:00,
2013-07-21 00:52:00,42.0,41.0,-100.00,North,360,0.0,0.0,98,0.00,,,0.00,0.000000,,2013-07-21 05:52:00,
2013-07-21 01:01:00,41.0,40.0,-100.00,NNE,14,0.0,0.0,98,0.00,,,0.00,0.000000,,2013-07-21 06:01:00,
2013-07-21 01:22:00,41.0,40.0,-100.00,NNE,14,0.0,0.0,98,0.00,,,0.00,0.000000,,2013-07-21 06:22:00,
2013-07-21 01:32:00,41.0,40.0,-100.00,NNE,14,0.0,0.0,98,0.00,,,0.00,0.000000,,2013-07-21 06:32:00,
2013-07-21 02:01:00,41.0,40.0,-100.00,NE,37,0.0,2.0,98,-99.99,,,0.00,0.000000,,2013-07-21 07:01:00,
2013-07-21 02:32:00,41.0,40.0,-100.00,NE,37,0.0,2.0,98,-99.99,,,0.00,0.000000,,2013-07-21 07:32:00,
2013-07-21 02:43:00,41.0,40.0,-100.00,NE,37,0.0,2.0,98,-99.99,,,0.00,0.000000,,2013-07-21 07:43:00,
2013-07-21 02:53:00,41.0,40.0,-100.00,NE,37,0.0,2.0,98,-99.99,,,0.00,0.000000,,2013-07-21 07:53:00,
2013-07-21 04:32:00,39.0,38.0,-100.00,WSW,246,0.0,0.0,98,-99.99,,,0.00,0.000000,,2013-07-21 09:32:00,
2013-07-21 05:01:00,44.0,44.0,-100.00,NW,319,0.0,2.0,99,-99.99,,,0.00,0.000000,,2013-07-21 10:01:00,
2013-07-21 05:22:00,44.0,44.0,-100.00,NW,319,0.0,2.0,99,-99.99,,,0.00,0.000000,,2013-07-21 10:22:00,
2013-07-21 05:32:00,44.0,44.0,-100.00,NW,319,0.0,2.0,99,-99.99,,,0.00,0.000000,,2013-07-21 10:32:00,
2013-07-21 05:43:00,44.0,44.0,-100.00,NW,319,0.0,2.0,99,-99.99,,,0.00,0.000000,,2013-07-21 10:43:00,
2013-07-21 05:52:00,44.0,44.0,-100.00,NW,319,0.0,2.0,99,-99.99,,,0.00,0.000000,,2013-07-21 10:52:00,
2013-07-21 06:01:00,46.0,46.0,-100.00,WNW,289,0.0,2.0,99,0.00,,,0.00,8.000000,,2013-07-21 11:01:00,
2013-07-21 06:22:00,46.0,46.0,-100.00,WNW,289,0.0,2.0,99,0.00,,,0.00,8.000000,,2013-07-21 11:22:00,
2013-07-21 06:33:00,46.0,46.0,-100.00,WNW,289,0.0,2.0,99,0.00,,,0.00,8.000000,,2013-07-21 11:33:00,
2013-07-21 06:43:00,46.0,46.0,-100.00,WNW,289,0.0,2.0,99,0.00,,,0.00,8.000000,,2013-07-21 11:43:00,
2013-07-21 06:52:00,46.0,46.0,-100.00,WNW,289,0.0,2.0,99,0.00,,,0.00,8.000000,,2013-07-21 11:52:00,
2013-07-21 07:01:00,54.0,51.0,-100.00,SSW,199,2.0,4.0,88,0.00,,,0.00,133.000000,,2013-07-21 12:01:00,
2013-07-21 07:22:00,54.0,51.0,-100.00,SSW,199,2.0,4.0,88,0.00,,,0.00,133.000000,,2013-07-21 12:22:00,
2013-07-21 07:32:00,54.0,51.0,-100.00,SSW,199,2.0,4.0,88,0.00,,,0.00,133.000000,,2013-07-21 12:32:00,
2013-07-21 07:43:00,54.0,51.0,-100.00,SSW,199,2.0,4.0,88,0.00,,,0.00,133.000000,,2013-07-21 12:43:00,
2013-07-21 07:53:00,54.0,51.0,-100.00,SSW,199,2.0,4.0,88,0.00,,,0.00,133.000000,,2013-07-21 12:53:00,
2013-07-21 08:01:00,60.0,50.0,-100.00,SSE,168,4.0,6.0,70,0.00,,,0.00,306.000000,,2013-07-21 13:01:00,
2013-07-21 08:22:00,60.0,50.0,-100.00,SSE,168,4.0,6.0,70,0.00,,,0.00,306.000000,,2013-07-21 13:22:00,
2013-07-21 08:33:00,60.0,50.0,-100.00,SSE,168,4.0,6.0,70,0.00,,,0.00,306.000000,,2013-07-21 13:33:00,
2013-07-21 08:43:00,60.0,50.0,-100.00,SSE,168,4.0,6.0,70,0.00,,,0.00,306.000000,,2013-07-21 13:43:00,
2013-07-21 08:53:00,60.0,50.0,-100.00,SSE,168,4.0,6.0,70,0.00,,,0.00,306.000000,,2013-07-21 13:53:00,
2013-07-21 09:01:00,62.0,49.0,-100.00,South,174,5.0,10.0,63,0.00,,,0.00,476.000000,,2013-07-21 14:01:00,
2013-07-21 09:23:00,62.0,49.0,-100.00,South,174,5.0,10.0,63,0.00,,,0.00,476.000000,,2013-07-21 14:23:00,
2013-07-21 09:32:00,62.0,49.0,-100.00,South,174,5.0,10.0,63,0.00,,,0.00,476.000000,,2013-07-21 14:32:00,
2013-07-21 09:43:00,62.0,49.0,-100.00,South,174,5.0,10.0,63,0.00,,,0.00,476.000000,,2013-07-21 14:43:00,
2013-07-21 09:53:00,62.0,49.0,-100.00,South,174,5.0,10.0,63,0.00,,,0.00,476.000000,,2013-07-21 14:53:00,
2013-07-21 10:01:00,65.0,51.0,-100.00,SW,221,7.0,11.0,60,0.00,,,0.00,663.000000,,2013-07-21 15:01:00,
2013-07-21 10:22:00,65.0,51.0,-100.00,SW,221,7.0,11.0,60,0.00,,,0.00,663.000000,,2013-07-21 15:22:00,
2013-07-21 10:32:00,65.0,51.0,-100.00,SW,221,7.0,11.0,60,0.00,,,0.00,663.000000,,2013-07-21 15:32:00,
2013-07-21 10:43:00,65.0,51.0,-100.00,SW,221,7.0,11.0,60,0.00,,,0.00,663.000000,,2013-07-21 15:43:00,
2013-07-21 10:53:00,65.0,51.0,-100.00,SW,221,7.0,11.0,60,0.00,,,0.00,663.000000,,2013-07-21 15:53:00,
2013-07-21 11:01:00,67.0,52.0,-100.00,SW,226,3.0,11.0,59,0.00,,,0.00,778.000000,,2013-07-21 16:01:00,
2013-07-21 11:22:00,67.0,52.0,-100.00,SW,226,3.0,11.0,59,0.00,,,0.00,778.000000,,2013-07-21 16:22:00,
2013-07-21 11:32:00,67.0,52.0,-100.00,SW,226,3.0,11.0,59,0.00,,,0.00,778.000000,,2013-07-21 16:32:00,
2013-07-21 11:43:00,67.0,52.0,-100.00,SW,226,3.0,11.0,59,0.00,,,0.00,778.000000,,2013-07-21 16:43:00,
2013-07-21 11:52:00,67.0,52.0,-100.00,SW,226,3.0,11.0,59,0.00,,,0.00,778.000000,,2013-07-21 16:52:00,
2013-07-21 12:01:00,68.0,52.0,-100.00,SW,222,6.0,10.0,57,0.00,,,0.00,862.000000,,2013-07-21 17:01:00,
2013-07-21 12:22:00,68.0,52.0,-100.00,SW,222,6.0,10.0,57,0.00,,,0.00,862.000000,,2013-07-21 17:22:00,
2013-07-21 12:33:00,68.0,52.0,-100.00,SW,222,6.0,10.0,57,0.00,,,0.00,862.000000,,2013-07-21 17:33:00,
2013-07-21 12:43:00,68.0,52.0,-100.00,SW,222,6.0,10.0,57,0.00,,,0.00,862.000000,,2013-07-21 17:43:00,
2013-07-21 12:53:00,68.0,52.0,-100.00,SW,222,6.0,10.0,57,0.00,,,0.00,862.000000,,2013-07-21 17:53:00,
2013-07-21 13:01:00,71.0,52.0,-100.00,SW,231,5.0,10.0,51,0.00,,,0.00,981.000000,,2013-07-21 18:01:00,
2013-07-21 13:22:00,71.0,52.0,-100.00,SW,231,5.0,10.0,51,0.00,,,0.00,981.000000,,2013-07-21 18:22:00,
2013-07-21 13:32:00,71.0,52.0,-100.00,SW,231,5.0,10.0,51,0.00,,,0.00,981.000000,,2013-07-21 18:32:00,
2013-07-21 13:43:00,71.0,52.0,-100.00,SW,231,5.0,10.0,51,0.00,,,0.00,981.000000,,2013-07-21 18:43:00,
2013-07-21 13:52:00,71.0,52.0,-100.00,SW,231,5.0,10.0,51,0.00,,,0.00,981.000000,,2013-07-21 18:52:00,
2013-07-21 14:01:00,70.0,52.0,-100.00,East,96,3.0,12.0,53,0.00,,,0.00,628.000000,,2013-07-21 19:01:00,
2013-07-21 14:22:00,70.0,52.0,-100.00,East,96,3.0,12.0,53,0.00,,,0.00,628.000000,,2013-07-21 19:22:00,
2013-07-21 14:32:00,70.0,52.0,-100.00,East,96,3.0,12.0,53,0.00,,,0.00,628.000000,,2013-07-21 19:32:00,
2013-07-21 14:42:00,70.0,52.0,-100.00,East,96,3.0,12.0,53,0.00,,,0.00,628.000000,,2013-07-21 19:42:00,
2013-07-21 14:52:00,70.0,52.0,-100.00,East,96,3.0,12.0,53,0.00,,,0.00,628.000000,,2013-07-21 19:52:00,
2013-07-21 15:01:00,71.0,52.0,-100.00,WNW,294,2.0,7.0,51,0.00,,,0.00,462.000000,,2013-07-21 20:01:00,
2013-07-21 15:22:00,71.0,52.0,-100.00,WNW,294,2.0,7.0,51,0.00,,,0.00,462.000000,,2013-07-21 20:22:00,
2013-07-21 15:32:00,71.0,52.0,-100.00,WNW,294,2.0,7.0,51,0.00,,,0.00,462.000000,,2013-07-21 20:32:00,
2013-07-21 15:43:00,71.0,52.0,-100.00,WNW,294,2.0,7.0,51,0.00,,,0.00,462.000000,,2013-07-21 20:43:00,
2013-07-21 15:52:00,71.0,52.0,-100.00,WNW,294,2.0,7.0,51,0.00,,,0.00,462.000000,,2013-07-21 20:52:00,
2013-07-21 16:01:00,75.0,54.0,-100.00,SSW,212,4.0,8.0,48,0.00,,,0.00,843.000000,,2013-07-21 21:01:00,
2013-07-21 16:22:00,75.0,54.0,-100.00,SSW,212,4.0,8.0,48,0.00,,,0.00,843.000000,,2013-07-21 21:22:00,
2013-07-21 16:32:00,75.0,54.0,-100.00,SSW,212,4.0,8.0,48,0.00,,,0.00,843.000000,,2013-07-21 21:32:00,
2013-07-21 16:43:00,75.0,54.0,-100.00,SSW,212,4.0,8.0,48,0.00,,,0.00,843.000000,,2013-07-21 21:43:00,
2013-07-21 16:52:00,75.0,54.0,-100.00,SSW,212,4.0,8.0,48,0.00,,,0.00,843.000000,,2013-07-21 21:52:00,
2013-07-21 17:01:00,73.0,55.0,-100.00,SSW,208,5.0,9.0,54,0.00,,,0.00,762.000000,,2013-07-21 22:01:00,
2013-07-21 17:22:00,73.0,55.0,-100.00,SSW,208,5.0,9.0,54,0.00,,,0.00,762.000000,,2013-07-21 22:22:00,
2013-07-21 17:32:00,73.0,55.0,-100.00,SSW,208,5.0,9.0,54,0.00,,,0.00,762.000000,,2013-07-21 22:32:00,
2013-07-21 17:43:00,73.0,55.0,-100.00,SSW,208,5.0,9.0,54,0.00,,,0.00,762.000000,,2013-07-21 22:43:00,
2013-07-21 17:52:00,73.0,55.0,-100.00,SSW,208,5.0,9.0,54,0.00,,,0.00,762.000000,,2013-07-21 22:52:00,
2013-07-21 18:01:00,70.0,55.0,-100.00,ESE,121,3.0,6.0,60,0.00,,,0.00,231.000000,,2013-07-21 23:01:00,
2013-07-21 18:22:00,70.0,55.0,-100.00,ESE,121,3.0,6.0,60,0.00,,,0.00,231.000000,,2013-07-21 23:22:00,
2013-07-21 18:32:00,70.0,55.0,-100.00,ESE,121,3.0,6.0,60,0.00,,,0.00,231.000000,,2013-07-21 23:32:00,
2013-07-21 18:43:00,70.0,55.0,-100.00,ESE,121,3.0,6.0,60,0.00,,,0.00,231.000000,,2013-07-21 23:43:00,
2013-07-21 18:53:00,70.0,55.0,-100.00,ESE,121,3.0,6.0,60,0.00,,,0.00,231.000000,,2013-07-21 23:53:00,
2013-07-21 19:01:00,72.0,57.0,-100.00,South,178,3.0,8.0,60,0.00,,,0.00,319.000000,,2013-07-22 00:01:00,
2013-07-21 19:22:00,72.0,57.0,-100.00,South,178,3.0,8.0,60,0.00,,,0.00,319.000000,,2013-07-22 00:22:00,
2013-07-21 19:32:00,72.0,57.0,-100.00,South,178,3.0,8.0,60,0.00,,,0.00,319.000000,,2013-07-22 00:32:00,
2013-07-21 19:42:00,72.0,57.0,-100.00,South,178,3.0,8.0,60,0.00,,,0.00,319.000000,,2013-07-22 00:42:00,
2013-07-21 19:53:00,72.0,57.0,-100.00,South,178,3.0,8.0,60,0.00,,,0.00,319.000000,,2013-07-22 00:53:00,
2013-07-21 20:01:00,70.0,59.0,-100.00,SE,146,2.0,7.0,67,0.00,,,0.00,148.000000,,2013-07-22 01:01:00,
2013-07-21 20:22:00,70.0,59.0,-100.00,SE,146,2.0,7.0,67,0.00,,,0.00,148.000000,,2013-07-22 01:22:00,
2013-07-21 20:32:00,70.0,59.0,-100.00,SE,146,2.0,7.0,67,0.00,,,0.00,148.000000,,2013-07-22 01:32:00,
2013-07-21 20:42:00,70.0,59.0,-100.00,SE,146,2.0,7.0,67,0.00,,,0.00,148.000000,,2013-07-22 01:42:00,
2013-07-21 20:52:00,70.0,59.0,-100.00,SE,146,2.0,7.0,67,0.00,,,0.00,148.000000,,2013-07-22 01:52:00,
2013-07-21 21:01:00,62.0,58.0,-100.00,SE,127,2.0,4.0,86,0.00,,,0.00,18.000000,,2013-07-22 02:01:00,
2013-07-21 21:22:00,62.0,58.0,-100.00,SE,127,2.0,4.0,86,0.00,,,0.00,18.000000,,2013-07-22 02:22:00,
2013-07-21 21:32:00,62.0,58.0,-100.00,SE,127,2.0,4.0,86,0.00,,,0.00,18.000000,,2013-07-22 02:32:00,
2013-07-21 21:43:00,62.0,58.0,-100.00,SE,127,2.0,4.0,86,0.00,,,0.00,18.000000,,2013-07-22 02:43:00,
2013-07-21 21:52:00,62.0,58.0,-100.00,SE,127,2.0,4.0,86,0.00,,,0.00,18.000000,,2013-07-22 02:52:00,
2013-07-21 22:01:00,61.0,57.0,-100.00,SSW,210,3.0,7.0,87,0.00,,,0.00,0.000000,,2013-07-22 03:01:00,
2013-07-21 22:22:00,61.0,57.0,-100.00,SSW,210,3.0,7.0,87,0.00,,,0.00,0.000000,,2013-07-22 03:22:00,
2013-07-21 22:33:00,61.0,57.0,-100.00,SSW,210,3.0,7.0,87,0.00,,,0.00,0.000000,,2013-07-22 03:33:00,
2013-07-21 22:43:00,61.0,57.0,-100.00,SSW,210,3.0,7.0,87,0.00,,,0.00,0.000000,,2013-07-22 03:43:00,
2013-07-21 22:53:00,61.0,57.0,-100.00,SSW,210,3.0,7.0,87,0.00,,,0.00,0.000000,,2013-07-22 03:53:00,
2013-07-21 23:01:00,59.0,57.0,-100.00,SSW,199,2.0,6.0,93,0.00,,,0.00,0.000000,,2013-07-22 04:01:00,
2013-07-21 23:22:00,59.0,57.0,-100.00,SSW,199,2.0,6.0,93,0.00,,,0.00,0.000000,,2013-07-22 04:22:00,
2013-07-21 23:33:00,59.0,57.0,-100.00,SSW,199,2.0,6.0,93,0.00,,,0.00,0.000000,,2013-07-22 04:33:00,
2013-07-21 23:43:00,59.0,57.0,-100.00,SSW,199,2.0,6.0,93,0.00,,,0.00,0.000000,,2013-07-22 04:43:00,